Time;durP1;ratioP1;P1;durP2;ratioP2;P2;SDS_P1;SDS_P2;PMS_P1;PMS_P2;Temp;Humidity;BMP_temperature;BMP_pressure;BME280_temperature;BME280_humidity;BME280_pressure;Samples;Min_cycle;Max_cycle;Signal;HPM_P1;HPM_P2
2021/01/31 00:01:54;;;;;;;6.47;3.88;;;;;;;25.24;35.10;94745.94;4985900;28;20053;-61
2021/01/31 00:04:19;;;;;;;7.88;3.10;;;;;;;25.25;34.57;94746.78;4980947;28;20037;-63
2021/01/31 00:06:45;;;;;;;8.23;3.03;;;;;;;25.24;35.11;94756.44;4968828;28;20034;-61
2021/01/31 00:09:10;;;;;;;4.90;3.20;;;;;;;25.24;34.73;94761.66;4974261;28;20449;-64
2021/01/31 00:11:36;;;;;;;6.57;3.30;;;;;;;25.24;34.47;94760.84;4978437;28;20184;-61
2021/01/31 00:14:10;;;;;;;6.45;2.97;;;;;;;25.23;34.61;94762.63;4954137;28;20045;-65
2021/01/31 00:16:41;;;;;;;5.32;3.10;;;;;;;25.24;34.83;94766.91;5003238;28;20041;-61
2021/01/31 00:19:07;;;;;;;4.72;3.08;;;;;;;25.23;34.96;94764.41;4985194;28;20134;-62
2021/01/31 00:21:32;;;;;;;5.75;3.25;;;;;;;25.23;34.86;94761.78;4956991;28;20038;-63
2021/01/31 00:23:57;;;;;;;5.82;3.00;;;;;;;25.22;34.95;94758.38;4970282;28;20033;-64
2021/01/31 00:26:23;;;;;;;4.35;2.67;;;;;;;25.22;34.36;94768.00;4972510;28;20121;-62
2021/01/31 00:28:52;;;;;;;8.50;2.80;;;;;;;25.22;34.95;94774.09;4959950;28;20038;-64
2021/01/31 00:31:17;;;;;;;4.85;2.80;;;;;;;25.22;34.33;94774.09;4975221;28;20091;-64
2021/01/31 00:33:43;;;;;;;5.97;2.88;;;;;;;25.21;34.56;94775.06;4959276;28;20042;-62
2021/01/31 00:36:13;;;;;;;4.30;2.58;;;;;;;25.22;34.92;94774.09;4956567;28;20100;-63
2021/01/31 00:38:42;;;;;;;4.95;2.60;;;;;;;25.21;34.31;94782.91;4982681;28;20103;-63
2021/01/31 00:41:07;;;;;;;3.47;2.70;;;;;;;25.22;34.91;94783.72;4982450;28;20034;-64
2021/01/31 00:43:33;;;;;;;4.93;2.80;;;;;;;25.21;34.65;94782.91;4960022;28;20124;-63
2021/01/31 00:46:04;;;;;;;4.38;2.50;;;;;;;25.21;34.86;94787.31;4983517;28;20524;-61
2021/01/31 00:48:33;;;;;;;5.05;2.50;;;;;;;25.20;34.91;94786.47;5002875;28;20057;-65
2021/01/31 00:51:02;;;;;;;4.72;2.85;;;;;;;25.18;34.53;94786.59;4986576;28;20477;-64
2021/01/31 00:53:28;;;;;;;6.50;2.72;;;;;;;25.20;34.92;94785.66;4978227;28;20037;-63
2021/01/31 00:55:57;;;;;;;3.47;2.40;;;;;;;25.16;34.28;94774.56;4950351;28;20092;-63
2021/01/31 00:58:23;;;;;;;3.75;2.65;;;;;;;25.19;34.75;94782.19;4977018;28;20707;-62
2021/01/31 01:00:48;;;;;;;4.32;2.60;;;;;;;25.20;34.77;94791.72;4976308;28;20054;-63
2021/01/31 01:03:14;;;;;;;5.95;2.58;;;;;;;25.16;34.34;94785.91;4969601;28;20173;-58
2021/01/31 01:05:39;;;;;;;4.13;2.17;;;;;;;25.18;33.67;94788.41;4953135;28;20041;-61
2021/01/31 01:08:08;;;;;;;3.53;2.40;;;;;;;25.18;33.98;94788.41;4976922;28;20128;-63
2021/01/31 01:10:34;;;;;;;2.95;2.20;;;;;;;25.17;34.29;94792.00;4995390;28;20041;-62
2021/01/31 01:13:00;;;;;;;4.78;2.20;;;;;;;25.16;34.68;94790.31;4963675;28;20103;-62
2021/01/31 01:15:26;;;;;;;3.70;2.30;;;;;;;25.17;34.49;94797.22;4970570;28;20137;-62
2021/01/31 01:17:52;;;;;;;2.67;1.98;;;;;;;25.15;34.65;94788.66;4965560;28;20416;-63
2021/01/31 01:20:18;;;;;;;4.82;2.13;;;;;;;25.16;34.63;94795.53;4972859;28;20074;-62
2021/01/31 01:22:43;;;;;;;5.45;2.30;;;;;;;25.17;34.76;94792.00;4963143;28;20520;-63
2021/01/31 01:25:10;;;;;;;3.92;2.25;;;;;;;25.16;34.53;94795.53;4957898;28;20038;-63
2021/01/31 01:27:36;;;;;;;3.88;2.08;;;;;;;25.17;34.13;94797.22;4977505;28;20040;-64
2021/01/31 01:30:05;;;;;;;3.08;1.98;;;;;;;25.16;34.11;94792.94;4972152;28;20041;-64
2021/01/31 01:32:31;;;;;;;4.65;2.25;;;;;;;25.16;34.28;94790.31;4959380;28;20121;-61
2021/01/31 01:35:06;;;;;;;3.30;1.90;;;;;;;25.15;34.10;94783.41;4980573;28;20038;-63
2021/01/31 01:37:32;;;;;;;2.67;1.92;;;;;;;25.16;34.26;94790.31;4972664;28;20045;-61
2021/01/31 01:40:05;;;;;;;4.22;1.98;;;;;;;25.15;34.68;94789.50;4956694;28;20515;-60
2021/01/31 01:42:31;;;;;;;3.45;2.15;;;;;;;25.14;34.13;94800.91;4977161;28;20050;-64
2021/01/31 01:44:56;;;;;;;3.15;1.98;;;;;;;25.16;34.25;94790.31;4960188;28;20528;-60
2021/01/31 01:47:23;;;;;;;3.20;2.15;;;;;;;25.13;34.62;94798.44;4971242;28;20034;-63
2021/01/31 01:49:50;;;;;;;4.97;2.10;;;;;;;25.15;34.71;94809.63;4965490;28;20324;-63
2021/01/31 01:52:32;;;;;;;5.18;2.10;;;;;;;25.02;34.62;94781.78;4972880;28;20029;-64
2021/01/31 01:55:11;;;;;;;2.80;2.00;;;;;;;25.13;34.37;94796.63;4981427;28;20601;-62
2021/01/31 01:57:41;;;;;;;3.70;1.90;;;;;;;25.14;34.84;94807.97;4957769;28;20045;-64
2021/01/31 02:00:07;;;;;;;5.47;2.05;;;;;;;25.13;34.09;94804.50;4992057;28;20065;-60
2021/01/31 02:02:38;;;;;;;2.38;1.80;;;;;;;25.13;34.49;94801.06;4953729;28;20561;-61
2021/01/31 02:05:06;;;;;;;2.28;1.60;;;;;;;25.12;34.36;94802.84;4974735;28;20034;-64
2021/01/31 02:07:31;;;;;;;2.38;1.45;;;;;;;25.12;34.30;94809.84;4978543;28;20038;-63
2021/01/31 02:09:57;;;;;;;5.07;1.80;;;;;;;25.12;34.56;94799.38;4960131;28;20073;-63
2021/01/31 02:12:25;;;;;;;2.65;1.67;;;;;;;25.13;34.29;94806.31;4972908;28;20057;-62
2021/01/31 02:14:50;;;;;;;4.03;2.00;;;;;;;25.12;34.30;94804.63;4975968;28;20061;-66
2021/01/31 02:17:27;;;;;;;3.88;1.65;;;;;;;25.12;34.54;94808.09;4962892;28;20148;-61
2021/01/31 02:20:27;;;;;;;2.42;1.63;;;;;;;25.12;34.26;94807.25;4977319;28;20508;-61
2021/01/31 02:23:30;;;;;;;2.40;1.63;;;;;;;25.11;34.51;94810.81;4944747;28;20072;-64
2021/01/31 02:26:02;;;;;;;4.00;1.77;;;;;;;25.12;34.06;94815.09;4978736;28;20065;-63
2021/01/31 02:28:52;;;;;;;3.55;1.77;;;;;;;25.11;34.44;94814.28;4972744;28;20079;-63
2021/01/31 02:31:42;;;;;;;3.72;1.70;;;;;;;25.08;34.56;94813.69;5007920;28;20801;-63
2021/01/31 02:34:18;;;;;;;2.15;1.50;;;;;;;25.10;34.41;94822.28;4980741;28;21462;-64
2021/01/31 02:36:44;;;;;;;3.08;1.40;;;;;;;25.07;34.16;94820.72;5004823;28;20117;-60
2021/01/31 02:39:34;;;;;;;2.30;1.40;;;;;;;25.07;34.19;94820.72;4989753;28;20117;-62
2021/01/31 02:42:34;;;;;;;3.10;1.50;;;;;;;25.07;34.41;94815.50;4992295;28;20419;-65
2021/01/31 02:45:14;;;;;;;2.03;1.30;;;;;;;25.08;34.59;94824.16;4980057;28;20465;-63
2021/01/31 02:47:48;;;;;;;2.13;1.60;;;;;;;25.07;34.66;94827.75;5001406;28;20050;-60
2021/01/31 02:50:23;;;;;;;2.15;1.60;;;;;;;25.05;34.16;94833.97;4955052;28;20038;-65
2021/01/31 02:52:53;;;;;;;2.47;1.50;;;;;;;25.05;34.69;94831.34;4977223;28;20049;-64
2021/01/31 02:55:27;;;;;;;3.22;1.35;;;;;;;25.06;34.56;94829.56;4992587;28;20029;-63
2021/01/31 02:58:10;;;;;;;2.55;1.33;;;;;;;25.05;33.94;94839.19;4965255;28;20406;-63
2021/01/31 03:00:58;;;;;;;2.42;1.60;;;;;;;25.05;34.60;94836.56;4958681;28;20093;-65
2021/01/31 03:03:56;;;;;;;2.47;1.25;;;;;;;25.04;34.41;94834.91;4966002;28;20038;-65
2021/01/31 03:06:25;;;;;;;2.72;1.52;;;;;;;25.05;34.76;94839.19;4974060;28;20492;-63
2021/01/31 03:09:26;;;;;;;2.75;1.40;;;;;;;25.04;33.99;94829.69;4968876;28;20129;-62
2021/01/31 03:11:59;;;;;;;3.10;1.30;;;;;;;25.04;34.23;94834.91;4988446;28;20045;-65
2021/01/31 03:14:30;;;;;;;2.10;1.27;;;;;;;25.04;34.04;94834.06;4975138;28;20053;-62
2021/01/31 03:17:17;;;;;;;2.13;1.60;;;;;;;25.04;34.43;94834.06;4991526;28;20037;-63
2021/01/31 03:19:46;;;;;;;2.25;1.30;;;;;;;25.04;34.42;94845.41;4973912;28;20129;-60
2021/01/31 03:22:13;;;;;;;1.95;1.17;;;;;;;25.03;34.17;94835.88;4965592;28;20046;-65
2021/01/31 03:24:41;;;;;;;2.95;1.33;;;;;;;25.03;34.56;94838.50;4975374;28;20041;-62
2021/01/31 03:27:16;;;;;;;1.38;1.25;;;;;;;25.03;34.68;94848.16;4991463;28;20485;-64
2021/01/31 03:29:41;;;;;;;2.75;1.33;;;;;;;25.04;34.15;94845.41;4972289;28;20773;-63
2021/01/31 03:32:26;;;;;;;2.15;1.20;;;;;;;25.01;34.31;94850.88;4971794;28;20169;-60
2021/01/31 03:34:57;;;;;;;1.90;1.48;;;;;;;25.03;34.30;94856.84;4965046;28;20350;-64
2021/01/31 03:37:59;;;;;;;1.40;1.00;;;;;;;25.03;34.42;94842.91;4974470;28;20038;-62
2021/01/31 03:40:24;;;;;;;2.67;1.10;;;;;;;25.01;34.13;94843.03;4926345;28;20039;-62
2021/01/31 03:42:50;;;;;;;1.52;1.08;;;;;;;25.03;34.67;94843.75;4993619;28;20114;-61
2021/01/31 03:45:19;;;;;;;2.03;1.13;;;;;;;25.02;34.06;94836.81;4962636;28;20049;-63
2021/01/31 03:47:50;;;;;;;1.30;0.98;;;;;;;25.02;34.37;94842.06;4952681;28;20864;-61
2021/01/31 03:50:16;;;;;;;3.03;1.23;;;;;;;25.03;33.93;94849.00;4960560;28;20415;-63
2021/01/31 03:52:41;;;;;;;2.35;0.95;;;;;;;25.02;34.12;94847.31;4979799;28;20049;-61
2021/01/31 03:55:07;;;;;;;2.10;1.20;;;;;;;25.01;34.20;94844.81;4980322;28;20033;-59
2021/01/31 03:57:36;;;;;;;1.65;1.00;;;;;;;25.02;34.20;94851.72;4961409;28;20042;-63
2021/01/31 04:00:06;;;;;;;2.10;1.30;;;;;;;25.01;34.15;94850.88;4970909;28;20652;-61
2021/01/31 04:02:55;;;;;;;2.08;1.25;;;;;;;25.02;34.09;94857.78;4994255;28;20038;-63
2021/01/31 04:05:22;;;;;;;1.27;1.00;;;;;;;25.02;34.40;94862.22;4966688;28;20048;-62
2021/01/31 04:07:48;;;;;;;2.28;1.20;;;;;;;25.02;33.97;94875.31;4956136;28;20158;-61
2021/01/31 04:10:14;;;;;;;1.10;0.93;;;;;;;25.02;34.46;94877.94;4959291;28;20413;-62
2021/01/31 04:12:43;;;;;;;1.42;1.05;;;;;;;25.01;34.43;94884.94;4976065;28;20056;-61
2021/01/31 04:15:32;;;;;;;0.98;0.85;;;;;;;25.01;34.57;94879.72;4971038;28;20039;-61
2021/01/31 04:17:57;;;;;;;1.42;0.90;;;;;;;25.02;34.43;94873.50;4966643;28;20046;-60
2021/01/31 04:20:26;;;;;;;1.85;1.10;;;;;;;25.01;34.08;94881.47;4974155;28;20579;-64
2021/01/31 04:22:52;;;;;;;2.63;1.20;;;;;;;25.00;34.42;94875.44;4991569;28;20692;-64
2021/01/31 04:25:17;;;;;;;1.83;1.10;;;;;;;25.00;34.30;94880.66;4974713;28;20111;-61
2021/01/31 04:27:50;;;;;;;1.52;1.17;;;;;;;25.00;34.57;94880.66;4958354;28;20542;-59
2021/01/31 04:30:16;;;;;;;1.00;0.80;;;;;;;24.99;34.07;94883.41;4977570;28;20054;-63
2021/01/31 04:32:45;;;;;;;2.00;1.20;;;;;;;24.98;33.93;94877.31;4964445;28;20397;-64
2021/01/31 04:35:11;;;;;;;1.27;1.00;;;;;;;24.87;34.26;94866.88;4977157;28;20038;-64
2021/01/31 04:37:40;;;;;;;1.90;0.98;;;;;;;24.98;34.66;94882.56;4962661;28;20125;-63
2021/01/31 04:40:08;;;;;;;1.10;1.00;;;;;;;24.99;33.95;94875.56;4992705;28;20060;-62
2021/01/31 04:42:37;;;;;;;1.60;1.00;;;;;;;24.99;34.45;94878.16;4999647;28;20033;-63
2021/01/31 04:45:07;;;;;;;1.00;0.90;;;;;;;24.99;34.20;94873.78;4982937;28;20052;-64
2021/01/31 04:47:36;;;;;;;1.17;1.02;;;;;;;24.99;33.98;94873.78;4979159;28;20165;-62
2021/01/31 04:50:05;;;;;;;1.63;0.65;;;;;;;25.00;34.01;94870.19;4982326;28;20120;-61
2021/01/31 04:53:01;;;;;;;0.98;0.88;;;;;;;24.98;34.01;94871.28;4996911;28;20084;-62
2021/01/31 04:55:43;;;;;;;1.23;0.80;;;;;;;24.99;34.07;94868.53;4979931;28;20106;-64
2021/01/31 04:58:14;;;;;;;1.08;0.90;;;;;;;25.00;33.93;94874.59;4990414;28;20049;-62
2021/01/31 05:00:44;;;;;;;1.30;0.88;;;;;;;24.98;34.09;94871.28;4988810;28;20163;-65
2021/01/31 05:03:09;;;;;;;2.28;1.48;;;;;;;24.97;33.62;94875.66;4966542;28;20425;-63
2021/01/31 05:06:05;;;;;;;1.90;1.15;;;;;;;24.97;33.93;94869.63;4977624;28;20045;-64
2021/01/31 05:08:32;;;;;;;1.58;0.68;;;;;;;24.96;34.03;94874.00;4990319;28;20049;-61
2021/01/31 05:11:10;;;;;;;2.55;1.00;;;;;;;24.93;34.02;94869.00;4999559;28;20050;-63
2021/01/31 05:13:59;;;;;;;2.80;0.90;;;;;;;24.95;33.95;94872.34;4971296;28;20048;-63
2021/01/31 05:16:24;;;;;;;1.00;0.85;;;;;;;24.95;33.78;94874.13;4997400;28;20037;-62
2021/01/31 05:18:58;;;;;;;4.70;0.80;;;;;;;24.96;34.31;94876.63;4953610;28;20046;-61
2021/01/31 05:21:25;;;;;;;1.10;0.88;;;;;;;24.96;33.84;94875.78;4981841;28;20046;-65
2021/01/31 05:23:59;;;;;;;0.90;0.70;;;;;;;24.96;33.92;94867.94;4992236;28;20059;-63
2021/01/31 05:26:25;;;;;;;1.50;0.88;;;;;;;24.97;34.39;94872.22;4963736;28;20048;-62
2021/01/31 05:28:59;;;;;;;0.80;0.70;;;;;;;24.97;34.00;94865.19;4953118;28;20050;-63
2021/01/31 05:31:27;;;;;;;0.77;0.70;;;;;;;24.97;33.89;94862.56;4959483;28;20042;-63
2021/01/31 05:33:57;;;;;;;1.20;0.77;;;;;;;24.98;33.86;94866.03;4992100;28;20034;-62
2021/01/31 05:36:25;;;;;;;2.70;0.82;;;;;;;24.97;33.97;94859.94;4974378;28;20038;-63
2021/01/31 05:38:50;;;;;;;1.10;0.88;;;;;;;24.98;34.29;94861.59;4973219;28;20041;-63
2021/01/31 05:41:28;;;;;;;0.88;0.63;;;;;;;24.99;33.87;94865.91;4975526;28;20608;-65
2021/01/31 05:44:02;;;;;;;0.80;0.80;;;;;;;24.99;33.98;94867.69;4989510;28;20038;-63
2021/01/31 05:46:50;;;;;;;1.10;0.70;;;;;;;24.98;33.80;94866.84;4992766;28;20056;-61
2021/01/31 05:49:35;;;;;;;1.45;0.80;;;;;;;24.97;33.81;94854.72;4988760;28;20038;-61
2021/01/31 05:52:02;;;;;;;0.75;0.70;;;;;;;24.98;33.98;94866.84;4998128;28;20546;-61
2021/01/31 05:54:35;;;;;;;0.70;0.70;;;;;;;24.98;34.29;94872.09;4977817;28;20034;-64
2021/01/31 05:57:01;;;;;;;0.98;0.73;;;;;;;24.98;34.31;94872.09;4982345;28;20065;-62
2021/01/31 05:59:40;;;;;;;0.70;0.70;;;;;;;24.98;34.02;94879.13;4976435;28;20103;-62
2021/01/31 06:02:10;;;;;;;0.88;0.52;;;;;;;25.00;34.14;94896.41;4982894;28;20049;-61
2021/01/31 06:04:36;;;;;;;0.70;0.70;;;;;;;25.01;33.84;94902.44;4970285;28;20050;-61
2021/01/31 06:07:06;;;;;;;1.08;0.50;;;;;;;25.02;34.29;94897.09;4970033;28;20037;-63
2021/01/31 06:09:41;;;;;;;0.80;0.57;;;;;;;25.01;33.74;94903.28;4994150;28;20046;-59
2021/01/31 06:12:19;;;;;;;0.82;0.70;;;;;;;25.03;34.35;94906.63;4972478;28;20034;-63
2021/01/31 06:15:07;;;;;;;2.20;0.70;;;;;;;25.04;33.97;94908.31;4994402;28;20029;-61
2021/01/31 06:17:33;;;;;;;1.23;0.70;;;;;;;25.04;33.78;94904.84;4958572;28;20128;-62
2021/01/31 06:20:09;;;;;;;0.50;0.50;;;;;;;25.06;33.79;94916.03;4956413;28;20044;-64
2021/01/31 06:22:47;;;;;;;0.43;0.40;;;;;;;25.07;34.02;94922.94;4981825;28;20394;-61
2021/01/31 06:25:15;;;;;;;0.65;0.50;;;;;;;25.07;33.76;94916.84;4962698;28;20038;-63
2021/01/31 06:27:41;;;;;;;1.23;0.65;;;;;;;25.08;34.36;94923.75;4976765;28;20121;-63
2021/01/31 06:30:25;;;;;;;0.77;0.70;;;;;;;25.08;33.79;94923.75;4982195;28;20374;-59
2021/01/31 06:32:51;;;;;;;1.02;0.60;;;;;;;25.09;34.08;94928.88;4969776;28;20042;-66
2021/01/31 06:35:17;;;;;;;0.73;0.70;;;;;;;25.10;34.16;94921.88;4952297;28;20038;-62
2021/01/31 06:37:54;;;;;;;0.60;0.60;;;;;;;25.10;33.57;94933.19;4957084;28;20177;-61
2021/01/31 06:40:45;;;;;;;1.13;0.80;;;;;;;25.11;33.99;94926.13;5004895;28;20025;-60
2021/01/31 06:43:16;;;;;;;0.88;0.65;;;;;;;25.11;33.59;94926.13;4988630;28;20042;-61
2021/01/31 06:46:07;;;;;;;0.70;0.70;;;;;;;25.11;34.25;94923.53;4993917;28;20428;-62
2021/01/31 06:48:35;;;;;;;1.20;0.60;;;;;;;25.12;34.13;94925.19;4997386;28;20101;-60
2021/01/31 06:51:41;;;;;;;0.70;0.60;;;;;;;25.11;34.35;94926.13;4984337;28;20040;-59
2021/01/31 06:54:27;;;;;;;1.13;0.70;;;;;;;25.11;33.87;94934.00;4988315;28;20041;-64
2021/01/31 06:57:28;;;;;;;1.10;0.82;;;;;;;25.12;33.83;94936.50;4989340;28;20544;-62
2021/01/31 07:00:17;;;;;;;0.60;0.60;;;;;;;25.12;33.77;94935.66;4983171;28;20042;-63
2021/01/31 07:03:06;;;;;;;0.80;0.73;;;;;;;25.13;33.65;94945.22;4973475;28;20407;-63
2021/01/31 07:05:46;;;;;;;1.08;0.77;;;;;;;25.12;33.63;94931.25;4981466;28;20046;-63
2021/01/31 07:08:30;;;;;;;0.70;0.70;;;;;;;25.13;33.66;94947.84;4987652;28;20547;-63
2021/01/31 07:11:15;;;;;;;1.73;0.80;;;;;;;25.14;33.74;94950.31;5009938;28;20067;-63
2021/01/31 07:14:02;;;;;;;3.25;0.73;;;;;;;25.14;33.93;94963.41;4969957;28;20042;-64
2021/01/31 07:16:30;;;;;;;2.10;0.70;;;;;;;25.15;34.23;94972.13;4996590;28;20048;-61
2021/01/31 07:19:09;;;;;;;1.45;0.68;;;;;;;25.14;33.67;94970.47;4976360;28;20470;-63
2021/01/31 07:21:42;;;;;;;1.13;0.68;;;;;;;25.15;33.66;94983.44;4966981;28;20448;-64
2021/01/31 07:24:13;;;;;;;2.08;0.60;;;;;;;25.15;33.81;94974.75;4991454;28;20526;-61
2021/01/31 07:26:46;;;;;;;0.80;0.60;;;;;;;25.15;33.87;94975.59;4972233;28;20129;-64
2021/01/31 07:29:18;;;;;;;0.50;0.50;;;;;;;25.16;33.60;94979.03;4980117;28;20045;-63
2021/01/31 07:31:50;;;;;;;2.65;0.60;;;;;;;25.18;34.09;94982.38;4989514;28;20121;-63
2021/01/31 07:34:23;;;;;;;1.15;0.80;;;;;;;25.17;33.58;94975.47;4980622;28;20554;-61
2021/01/31 07:37:14;;;;;;;1.25;0.85;;;;;;;25.17;34.08;94983.34;5000215;28;20351;-64
2021/01/31 07:39:59;;;;;;;0.50;0.50;;;;;;;25.17;34.22;94984.16;4978203;28;20133;-63
2021/01/31 07:42:25;;;;;;;1.85;0.80;;;;;;;25.17;33.73;94988.56;4992052;28;20797;-63
2021/01/31 07:44:55;;;;;;;1.08;0.77;;;;;;;25.17;33.88;94985.97;4958476;28;20132;-63
2021/01/31 07:47:28;;;;;;;0.70;0.65;;;;;;;25.19;34.07;94994.50;4977670;28;20038;-64
2021/01/31 07:49:53;;;;;;;1.02;0.80;;;;;;;25.19;33.54;94989.28;4979115;28;20048;-61
2021/01/31 07:52:23;;;;;;;0.82;0.70;;;;;;;25.18;34.12;94998.91;4993166;28;20392;-64
2021/01/31 07:54:48;;;;;;;0.73;0.60;;;;;;;25.20;33.87;94990.13;4977953;28;20053;-63
2021/01/31 07:57:28;;;;;;;0.57;0.50;;;;;;;25.19;33.84;94989.28;4990369;28;20042;-62
2021/01/31 07:59:54;;;;;;;1.45;0.70;;;;;;;25.19;34.19;94989.28;4975008;28;20038;-63
2021/01/31 08:02:36;;;;;;;1.10;0.75;;;;;;;25.18;33.67;94985.00;4957544;28;20061;-66
2021/01/31 08:05:02;;;;;;;10.00;1.15;;;;;;;25.17;33.49;94980.72;4981074;28;20529;-62
2021/01/31 08:08:06;;;;;;;4.03;0.90;;;;;;;25.17;33.48;94986.78;4974915;28;20046;-63
2021/01/31 08:10:58;;;;;;;8.25;0.90;;;;;;;25.17;33.89;94999.06;4983334;28;20130;-64
2021/01/31 08:13:37;;;;;;;5.32;1.17;;;;;;;25.15;33.51;95001.81;4964115;28;20592;-64
2021/01/31 08:16:39;;;;;;;6.72;0.90;;;;;;;25.14;33.40;95005.34;4995356;28;20076;-65
2021/01/31 08:19:08;;;;;;;2.88;0.82;;;;;;;25.14;33.37;94999.28;5007754;28;20246;-65
2021/01/31 08:21:57;;;;;;;2.65;0.90;;;;;;;25.14;33.38;95002.72;4987448;28;20172;-64
2021/01/31 08:25:01;;;;;;;3.17;0.90;;;;;;;25.14;33.48;95002.72;4972244;28;20044;-62
2021/01/31 08:27:38;;;;;;;3.15;0.70;;;;;;;25.15;34.09;95003.56;4985042;28;20036;-62
2021/01/31 08:30:13;;;;;;;1.63;0.75;;;;;;;25.15;34.04;95003.56;4986213;28;20243;-60
2021/01/31 08:33:00;;;;;;;1.95;0.80;;;;;;;25.16;33.98;95000.00;4985422;28;20054;-63
2021/01/31 08:35:46;;;;;;;3.40;0.95;;;;;;;25.15;34.15;94990.47;4983007;28;20496;-62
2021/01/31 08:38:28;;;;;;;3.42;0.88;;;;;;;25.16;34.07;95011.31;4948631;28;20037;-61
2021/01/31 08:41:02;;;;;;;1.25;0.65;;;;;;;25.17;33.94;95012.16;5004080;28;20034;-62
2021/01/31 08:43:28;;;;;;;1.00;0.55;;;;;;;25.18;34.39;95024.31;4983507;28;22012;-62
2021/01/31 08:46:01;;;;;;;2.85;0.88;;;;;;;25.20;33.93;95026.81;4959414;28;20034;-61
2021/01/31 08:48:27;;;;;;;0.82;0.60;;;;;;;25.19;33.76;95025.97;4984030;28;20408;-60
2021/01/31 08:51:13;;;;;;;2.15;0.80;;;;;;;25.21;34.52;95023.22;4964718;28;20038;-63
2021/01/31 08:53:38;;;;;;;2.65;0.82;;;;;;;25.20;33.86;95026.81;4968386;28;20718;-60
2021/01/31 08:56:21;;;;;;;1.23;0.82;;;;;;;25.22;34.48;95027.50;4947580;28;20052;-62
2021/01/31 08:58:46;;;;;;;1.27;0.77;;;;;;;25.21;34.00;95024.09;4964619;28;20038;-61
2021/01/31 09:01:12;;;;;;;4.47;1.08;;;;;;;25.23;34.28;95021.31;4947577;28;20042;-62
2021/01/31 09:03:40;;;;;;;1.38;0.80;;;;;;;25.21;34.15;95013.59;4950825;28;20107;-62
2021/01/31 09:06:05;;;;;;;2.00;0.68;;;;;;;25.22;33.96;95011.78;4967431;28;20042;-61
2021/01/31 09:08:31;;;;;;;1.73;0.90;;;;;;;25.22;34.25;95014.41;4965506;28;20175;-60
2021/01/31 09:10:56;;;;;;;2.58;0.70;;;;;;;25.21;33.91;95018.84;4964251;28;20030;-62
2021/01/31 09:13:33;;;;;;;1.10;0.90;;;;;;;25.21;34.28;95024.09;4950000;28;20753;-61
2021/01/31 09:16:11;;;;;;;7.88;0.88;;;;;;;25.22;34.12;95020.50;4968103;28;20995;-63
2021/01/31 09:18:46;;;;;;;2.55;0.70;;;;;;;25.21;33.87;95018.84;4981641;28;20583;-62
2021/01/31 09:21:38;;;;;;;2.13;0.80;;;;;;;25.22;34.43;95025.75;4962915;28;20062;-60
2021/01/31 09:24:13;;;;;;;0.80;0.60;;;;;;;25.24;34.02;95029.06;4982316;28;20038;-63
2021/01/31 09:26:38;;;;;;;2.15;0.50;;;;;;;25.23;34.45;95030.03;4963527;28;20099;-62
2021/01/31 09:29:07;;;;;;;1.40;0.85;;;;;;;25.22;34.30;95038.84;4949945;28;20045;-62
2021/01/31 09:31:33;;;;;;;2.30;1.00;;;;;;;25.24;34.48;95041.34;4970026;28;20119;-62
2021/01/31 09:33:58;;;;;;;13.90;1.08;;;;;;;25.23;34.29;95052.78;4950208;28;20037;-61
2021/01/31 09:36:35;;;;;;;2.25;1.00;;;;;;;25.21;33.94;95045.06;4949938;28;20062;-61
2021/01/31 09:39:03;;;;;;;1.35;0.95;;;;;;;25.21;34.21;95046.81;4978754;28;20061;-59
2021/01/31 09:41:29;;;;;;;1.55;1.27;;;;;;;25.20;33.96;95042.53;4964013;28;20604;-64
2021/01/31 09:44:01;;;;;;;1.63;1.00;;;;;;;25.18;34.42;95045.28;4963251;28;20034;-61
2021/01/31 09:46:27;;;;;;;4.30;1.00;;;;;;;25.20;33.77;95047.78;4968142;28;20980;-62
2021/01/31 09:49:09;;;;;;;2.67;1.15;;;;;;;25.19;34.11;95046.94;4949382;28;20129;-63
2021/01/31 09:51:34;;;;;;;0.90;0.80;;;;;;;25.20;33.93;95048.59;4984939;28;20193;-62
2021/01/31 09:54:32;;;;;;;1.15;0.82;;;;;;;25.20;33.98;95055.66;4948789;28;20034;-62
2021/01/31 09:56:59;;;;;;;1.55;0.95;;;;;;;25.21;34.28;95058.16;4921909;28;20046;-61
2021/01/31 09:59:30;;;;;;;0.82;0.70;;;;;;;25.21;33.75;95059.94;4957059;28;20333;-62
2021/01/31 10:02:06;;;;;;;1.17;1.00;;;;;;;25.21;34.34;95055.53;4969640;28;20681;-62
2021/01/31 10:04:31;;;;;;;1.27;1.05;;;;;;;25.20;33.87;95053.84;4971397;28;20558;-61
2021/01/31 10:07:14;;;;;;;12.93;4.32;;;;;;;25.10;26.86;95039.81;4977686;28;20045;-62
2021/01/31 10:09:41;;;;;;;5.75;4.38;;;;;;;24.85;24.78;95039.06;4960399;28;20185;-64
2021/01/31 10:12:15;;;;;;;4.93;4.35;;;;;;;24.48;23.18;95030.44;4962619;28;20030;-65
2021/01/31 10:14:48;;;;;;;6.18;4.85;;;;;;;24.12;24.32;95038.31;4990915;28;20045;-61
2021/01/31 10:17:44;;;;;;;6.22;4.82;;;;;;;23.71;23.37;95036.91;4963773;28;20122;-60
2021/01/31 10:20:34;;;;;;;10.07;3.88;;;;;;;23.42;25.67;95034.63;4976930;28;20072;-61
2021/01/31 10:23:09;;;;;;;4.32;2.92;;;;;;;23.24;26.72;95034.97;4986143;28;20038;-59
2021/01/31 10:25:41;;;;;;;3.83;2.90;;;;;;;23.16;27.77;95022.44;4981147;28;20041;-60
2021/01/31 10:28:06;;;;;;;9.13;2.97;;;;;;;23.15;28.21;95020.75;4985197;28;20037;-58
2021/01/31 10:30:49;;;;;;;6.15;2.22;;;;;;;23.17;29.01;95021.50;4961506;28;21192;-60
2021/01/31 10:33:39;;;;;;;9.77;2.53;;;;;;;23.21;29.08;95022.94;4974790;28;20044;-60
2021/01/31 10:36:26;;;;;;;2.90;2.00;;;;;;;23.26;29.71;95033.06;4974157;28;20034;-62
2021/01/31 10:39:08;;;;;;;5.90;2.13;;;;;;;23.32;29.66;95029.19;4976820;28;20068;-59
2021/01/31 10:41:37;;;;;;;3.10;1.90;;;;;;;23.40;29.69;95039.97;4977565;28;20033;-58
2021/01/31 10:44:07;;;;;;;4.63;2.10;;;;;;;23.46;30.06;95036.09;4938616;28;20476;-58
2021/01/31 10:46:37;;;;;;;7.70;2.22;;;;;;;23.53;30.29;95031.25;4976598;28;20061;-59
2021/01/31 10:49:03;;;;;;;5.53;1.95;;;;;;;23.59;30.28;95020.34;4947677;28;20034;-57
2021/01/31 10:51:31;;;;;;;3.35;1.75;;;;;;;23.64;30.58;95026.06;4969095;28;20026;-61
2021/01/31 10:53:57;;;;;;;3.67;1.80;;;;;;;23.70;30.37;95022.16;4945437;28;20033;-60
2021/01/31 10:56:22;;;;;;;2.20;1.60;;;;;;;23.77;30.62;95023.41;4946883;28;20391;-60
2021/01/31 10:58:48;;;;;;;2.97;1.80;;;;;;;23.82;30.84;95021.28;4964175;28;20582;-60
2021/01/31 11:01:13;;;;;;;3.88;1.80;;;;;;;23.87;30.56;95021.78;4955816;28;20104;-58
2021/01/31 11:03:39;;;;;;;16.30;3.60;;;;;;;23.92;30.69;95026.69;4978630;28;20428;-60
2021/01/31 11:06:04;;;;;;;19.08;4.80;;;;;;;23.96;31.06;95028.13;4949362;28;20049;-60
2021/01/31 11:08:30;;;;;;;43.38;5.45;;;;;;;24.00;31.35;95029.56;4958738;28;20049;-60
2021/01/31 11:10:59;;;;;;;20.30;4.55;;;;;;;24.04;30.95;95016.25;4973320;28;20128;-58
2021/01/31 11:13:26;;;;;;;13.25;4.00;;;;;;;24.08;30.95;95020.31;4957926;28;20042;-59
2021/01/31 11:15:51;;;;;;;12.75;4.45;;;;;;;24.10;31.25;95019.28;4959914;28;20064;-59
2021/01/31 11:18:24;;;;;;;17.50;3.92;;;;;;;24.14;30.86;95019.91;4980487;28;20061;-61
2021/01/31 11:20:50;;;;;;;16.55;3.70;;;;;;;24.17;31.67;95024.88;4978104;28;20038;-59
2021/01/31 11:23:20;;;;;;;12.13;3.85;;;;;;;24.20;31.44;95013.34;4978775;28;20064;-57
2021/01/31 11:25:50;;;;;;;14.25;3.67;;;;;;;24.22;31.18;95017.50;4981606;28;20863;-58
2021/01/31 11:28:19;;;;;;;13.35;3.92;;;;;;;24.24;31.24;95018.25;4988594;28;20049;-60
2021/01/31 11:30:45;;;;;;;12.20;3.58;;;;;;;24.27;31.26;95015.41;4960314;28;23194;-59
2021/01/31 11:33:10;;;;;;;9.27;3.35;;;;;;;24.29;31.39;95014.47;4955757;28;20042;-59
2021/01/31 11:35:43;;;;;;;11.63;3.58;;;;;;;24.32;31.52;95017.66;4969541;28;20029;-58
2021/01/31 11:38:14;;;;;;;9.82;3.10;;;;;;;24.34;31.45;95021.03;4963487;28;20049;-59
2021/01/31 11:40:39;;;;;;;8.68;3.22;;;;;;;24.36;31.93;95018.25;4977040;28;20064;-60
2021/01/31 11:43:05;;;;;;;8.82;3.08;;;;;;;24.38;31.18;95017.22;4981650;28;20042;-61
2021/01/31 11:45:30;;;;;;;8.75;3.53;;;;;;;24.40;31.38;95009.22;4958962;28;20092;-61
2021/01/31 11:47:56;;;;;;;6.55;2.70;;;;;;;24.42;31.45;95006.50;4978427;28;20049;-61
2021/01/31 11:50:22;;;;;;;8.25;2.92;;;;;;;24.43;31.90;95003.78;4966514;28;20044;-60
2021/01/31 11:52:47;;;;;;;11.10;2.95;;;;;;;24.44;31.80;94994.97;4958772;28;20092;-60
2021/01/31 11:55:13;;;;;;;8.65;3.00;;;;;;;24.45;31.93;94996.66;4955346;28;20042;-62
2021/01/31 11:57:38;;;;;;;6.68;2.30;;;;;;;24.47;31.92;94986.03;4993480;28;20050;-60
2021/01/31 12:00:05;;;;;;;8.25;3.10;;;;;;;24.48;31.49;94991.16;4957359;28;20049;-59
2021/01/31 12:02:31;;;;;;;6.10;2.80;;;;;;;24.48;31.53;94992.97;4964971;28;20054;-60